sensor_id;sensor_type;location;lat;lon;timestamp;pressure;altitude;pressure_sealevel;temperature;humidity
81931;BME280;71395;43.488;1.472;2023-08-21T00:02:20;100212.84;;;31.04;49.55
81931;BME280;71395;43.488;1.472;2023-08-21T00:04:46;100212.44;;;31.05;49.95
81931;BME280;71395;43.488;1.472;2023-08-21T00:07:12;100222.34;;;31.06;50.04
81931;BME280;71395;43.488;1.472;2023-08-21T00:09:37;100210.47;;;30.99;50.27
81931;BME280;71395;43.488;1.472;2023-08-21T00:12:03;100230.66;;;31.10;50.63
81931;BME280;71395;43.488;1.472;2023-08-21T00:14:29;100224.34;;;31.09;50.69
81931;BME280;71395;43.488;1.472;2023-08-21T00:16:54;100220.78;;;31.09;50.34
81931;BME280;71395;43.488;1.472;2023-08-21T00:19:19;100217.22;;;31.08;49.98
81931;BME280;71395;43.488;1.472;2023-08-21T00:21:45;100212.03;;;31.00;50.60
81931;BME280;71395;43.488;1.472;2023-08-21T00:24:10;100205.69;;;30.96;50.31
81931;BME280;71395;43.488;1.472;2023-08-21T00:26:36;100215.97;;;31.02;49.79
81931;BME280;71395;43.488;1.472;2023-08-21T00:29:02;100229.09;;;31.09;50.84
81931;BME280;71395;43.488;1.472;2023-08-21T00:31:27;100203.69;;;30.93;50.03
81931;BME280;71395;43.488;1.472;2023-08-21T00:33:52;100208.06;;;30.97;50.21
81931;BME280;71395;43.488;1.472;2023-08-21T00:36:18;100225.50;;;31.05;50.49
81931;BME280;71395;43.488;1.472;2023-08-21T00:38:45;100232.63;;;31.06;50.26
81931;BME280;71395;43.488;1.472;2023-08-21T00:41:10;100224.28;;;31.02;50.27
81931;BME280;71395;43.488;1.472;2023-08-21T00:43:36;100216.78;;;31.03;50.67
81931;BME280;71395;43.488;1.472;2023-08-21T00:46:01;100220.72;;;31.02;50.26
81931;BME280;71395;43.488;1.472;2023-08-21T00:48:27;100239.75;;;31.10;50.00
81931;BME280;71395;43.488;1.472;2023-08-21T00:50:52;100223.50;;;31.02;50.89
81931;BME280;71395;43.488;1.472;2023-08-21T00:53:18;100239.75;;;31.10;50.33
81931;BME280;71395;43.488;1.472;2023-08-21T00:55:43;100217.56;;;31.00;50.90
81931;BME280;71395;43.488;1.472;2023-08-21T00:58:10;100224.72;;;31.04;50.63
81931;BME280;71395;43.488;1.472;2023-08-21T01:00:38;100232.25;;;31.11;50.68
81931;BME280;71395;43.488;1.472;2023-08-21T01:03:03;100233.44;;;31.10;50.18
81931;BME280;71395;43.488;1.472;2023-08-21T01:05:29;100238.97;;;31.10;50.30
81931;BME280;71395;43.488;1.472;2023-08-21T01:08:13;100236.59;;;31.12;49.95
81931;BME280;71395;43.488;1.472;2023-08-21T01:13:22;100213.22;;;31.02;50.78
81931;BME280;71395;43.488;1.472;2023-08-21T01:15:51;100233.00;;;31.08;51.17
81931;BME280;71395;43.488;1.472;2023-08-21T01:18:18;100227.09;;;31.06;51.00
81931;BME280;71395;43.488;1.472;2023-08-21T01:20:44;100233.44;;;31.10;50.86
81931;BME280;71395;43.488;1.472;2023-08-21T01:23:09;100231.44;;;31.10;50.51
81931;BME280;71395;43.488;1.472;2023-08-21T01:25:35;100224.31;;;31.06;50.87
81931;BME280;71395;43.488;1.472;2023-08-21T01:28:00;100232.63;;;31.06;50.99
81931;BME280;71395;43.488;1.472;2023-08-21T01:30:27;100238.97;;;31.10;50.86
81931;BME280;71395;43.488;1.472;2023-08-21T01:33:06;100240.94;;;31.09;50.96
81931;BME280;71395;43.488;1.472;2023-08-21T01:35:35;100237.78;;;31.04;50.67
81931;BME280;71395;43.488;1.472;2023-08-21T01:38:04;100239.75;;;31.07;50.78
81931;BME280;71395;43.488;1.472;2023-08-21T01:40:30;100252.81;;;31.10;51.13
81931;BME280;71395;43.488;1.472;2023-08-21T01:42:55;100234.59;;;31.02;50.30
81931;BME280;71395;43.488;1.472;2023-08-21T01:45:22;100233.38;;;31.03;50.55
81931;BME280;71395;43.488;1.472;2023-08-21T01:47:47;100253.59;;;31.10;50.96
81931;BME280;71395;43.488;1.472;2023-08-21T01:50:13;100242.50;;;31.07;50.90
81931;BME280;71395;43.488;1.472;2023-08-21T01:52:38;100238.56;;;31.04;50.62
81931;BME280;71395;43.488;1.472;2023-08-21T01:55:04;100242.50;;;31.07;50.71
81931;BME280;71395;43.488;1.472;2023-08-21T01:57:29;100246.47;;;31.06;50.92
81931;BME280;71395;43.488;1.472;2023-08-21T01:59:55;100250.03;;;31.10;51.19
81931;BME280;71395;43.488;1.472;2023-08-21T02:02:20;100248.47;;;31.09;50.89
81931;BME280;71395;43.488;1.472;2023-08-21T02:04:46;100240.53;;;31.04;50.54
81931;BME280;71395;43.488;1.472;2023-08-21T02:07:11;100252.41;;;31.04;51.04
81931;BME280;71395;43.488;1.472;2023-08-21T02:09:36;100254.78;;;31.09;50.06
81931;BME280;71395;43.488;1.472;2023-08-21T02:12:02;100235.75;;;30.97;50.33
81931;BME280;71395;43.488;1.472;2023-08-21T02:14:28;100259.53;;;31.09;50.32
81931;BME280;71395;43.488;1.472;2023-08-21T02:16:53;100244.88;;;31.05;50.78
81931;BME280;71395;43.488;1.472;2023-08-21T02:19:18;100262.31;;;31.09;51.05
81931;BME280;71395;43.488;1.472;2023-08-21T02:21:44;100259.53;;;31.09;50.94
81931;BME280;71395;43.488;1.472;2023-08-21T02:24:09;100257.94;;;31.04;50.54
81931;BME280;71395;43.488;1.472;2023-08-21T02:26:35;100267.06;;;31.08;50.85
81931;BME280;71395;43.488;1.472;2023-08-21T02:29:00;100250.81;;;31.00;50.78
81931;BME280;71395;43.488;1.472;2023-08-21T02:31:25;100262.69;;;31.04;50.84
81931;BME280;71395;43.488;1.472;2023-08-21T02:33:51;100258.31;;;31.03;50.15
81931;BME280;71395;43.488;1.472;2023-08-21T02:36:16;100245.66;;;30.95;51.02
81931;BME280;71395;43.488;1.472;2023-08-21T02:38:42;100253.16;;;30.98;50.65
81931;BME280;71395;43.488;1.472;2023-08-21T02:41:07;100254.75;;;30.95;51.20
81931;BME280;71395;43.488;1.472;2023-08-21T02:43:33;100271.78;;;31.08;50.93
81931;BME280;71395;43.488;1.472;2023-08-21T02:45:59;100260.28;;;31.02;50.10
81931;BME280;71395;43.488;1.472;2023-08-21T02:48:24;100258.72;;;31.01;50.61
81931;BME280;71395;43.488;1.472;2023-08-21T02:50:50;100222.63;;;30.76;50.68
81931;BME280;71395;43.488;1.472;2023-08-21T02:53:15;100262.69;;;31.07;50.14
81931;BME280;71395;43.488;1.472;2023-08-21T02:55:40;100263.84;;;31.03;50.58
81931;BME280;71395;43.488;1.472;2023-08-21T02:58:06;100257.91;;;30.94;50.71
81931;BME280;71395;43.488;1.472;2023-08-21T03:00:31;100249.19;;;30.92;51.05
81931;BME280;71395;43.488;1.472;2023-08-21T03:02:57;100269.78;;;30.98;50.72
81931;BME280;71395;43.488;1.472;2023-08-21T03:05:22;100272.19;;;31.06;51.08
81931;BME280;71395;43.488;1.472;2023-08-21T03:07:47;100279.69;;;31.06;50.93
81931;BME280;71395;43.488;1.472;2023-08-21T03:10:13;100277.72;;;31.06;50.70
81931;BME280;71395;43.488;1.472;2023-08-21T03:12:38;100270.19;;;31.00;50.43
81931;BME280;71395;43.488;1.472;2023-08-21T03:15:04;100272.53;;;30.98;50.39
81931;BME280;71395;43.488;1.472;2023-08-21T03:17:29;100273.78;;;31.04;50.82
81931;BME280;71395;43.488;1.472;2023-08-21T03:19:55;100256.69;;;30.91;50.62
81931;BME280;71395;43.488;1.472;2023-08-21T03:22:21;100240.44;;;30.79;50.19
81931;BME280;71395;43.488;1.472;2023-08-21T03:24:46;100273.78;;;31.04;51.01
81931;BME280;71395;43.488;1.472;2023-08-21T03:27:15;100261.47;;;30.94;50.81
81931;BME280;71395;43.488;1.472;2023-08-21T03:29:40;100280.47;;;31.03;50.28
81931;BME280;71395;43.488;1.472;2023-08-21T03:32:06;100259.88;;;30.89;49.99
81931;BME280;71395;43.488;1.472;2023-08-21T03:34:31;100263.84;;;30.96;50.19
81931;BME280;71395;43.488;1.472;2023-08-21T03:36:56;100276.13;;;31.02;50.41
81931;BME280;71395;43.488;1.472;2023-08-21T03:39:22;100263.03;;;30.92;50.21
81931;BME280;71395;43.488;1.472;2023-08-21T03:41:47;100274.91;;;30.96;50.86
81931;BME280;71395;43.488;1.472;2023-08-21T03:44:13;100283.25;;;31.03;50.34
81931;BME280;71395;43.488;1.472;2023-08-21T03:46:39;100270.56;;;30.95;50.20
81931;BME280;71395;43.488;1.472;2023-08-21T03:49:05;100281.28;;;31.03;49.98
81931;BME280;71395;43.488;1.472;2023-08-21T03:51:30;100277.69;;;31.03;50.11
81931;BME280;71395;43.488;1.472;2023-08-21T03:53:56;100265.78;;;30.92;50.41
81931;BME280;71395;43.488;1.472;2023-08-21T03:56:21;100259.88;;;30.97;50.18
81931;BME280;71395;43.488;1.472;2023-08-21T03:58:48;100281.28;;;31.03;50.87
81931;BME280;71395;43.488;1.472;2023-08-21T04:01:13;100283.25;;;31.03;50.75
81931;BME280;71395;43.488;1.472;2023-08-21T04:03:39;100276.09;;;30.95;50.87
81931;BME280;71395;43.488;1.472;2023-08-21T04:06:04;100270.53;;;30.91;49.78
81931;BME280;71395;43.488;1.472;2023-08-21T04:08:29;100291.94;;;30.98;49.94
81931;BME280;71395;43.488;1.472;2023-08-21T04:10:55;100280.06;;;30.97;50.25
81931;BME280;71395;43.488;1.472;2023-08-21T04:13:24;100283.63;;;30.98;50.90
81931;BME280;71395;43.488;1.472;2023-08-21T04:15:50;100276.91;;;30.95;50.71
81931;BME280;71395;43.488;1.472;2023-08-21T04:18:16;100278.09;;;30.94;50.50
81931;BME280;71395;43.488;1.472;2023-08-21T04:20:41;100273.28;;;30.87;50.44
81931;BME280;71395;43.488;1.472;2023-08-21T04:23:06;100279.63;;;30.88;49.98
81931;BME280;71395;43.488;1.472;2023-08-21T04:25:32;100299.47;;;31.01;50.25
81931;BME280;71395;43.488;1.472;2023-08-21T04:27:57;100302.22;;;31.01;50.28
81931;BME280;71395;43.488;1.472;2023-08-21T04:30:23;100297.06;;;30.96;50.46
81931;BME280;71395;43.488;1.472;2023-08-21T04:32:48;100294.28;;;30.92;50.33
81931;BME280;71395;43.488;1.472;2023-08-21T04:35:14;100305.38;;;30.96;50.52
81931;BME280;71395;43.488;1.472;2023-08-21T04:37:45;100310.53;;;31.01;50.17
81931;BME280;71395;43.488;1.472;2023-08-21T04:40:11;100313.28;;;30.97;50.86
81931;BME280;71395;43.488;1.472;2023-08-21T04:42:36;100304.56;;;30.92;50.55
81931;BME280;71395;43.488;1.472;2023-08-21T04:45:02;100322.81;;;31.00;50.85
81931;BME280;71395;43.488;1.472;2023-08-21T04:47:28;100318.03;;;30.97;50.21
81931;BME280;71395;43.488;1.472;2023-08-21T04:49:54;100332.31;;;30.99;49.88
81931;BME280;71395;43.488;1.472;2023-08-21T04:52:23;100318.03;;;30.93;50.16
81931;BME280;71395;43.488;1.472;2023-08-21T04:54:49;100318.00;;;30.89;50.06
81931;BME280;71395;43.488;1.472;2023-08-21T04:57:15;100313.66;;;30.88;50.75
81931;BME280;71395;43.488;1.472;2023-08-21T04:59:41;100327.53;;;30.96;49.87
81931;BME280;71395;43.488;1.472;2023-08-21T05:02:07;100336.22;;;30.98;50.94
81931;BME280;71395;43.488;1.472;2023-08-21T05:04:35;100331.88;;;30.93;50.08
81931;BME280;71395;43.488;1.472;2023-08-21T05:07:01;100329.09;;;30.89;50.09
81931;BME280;71395;43.488;1.472;2023-08-21T05:09:26;100339.41;;;30.96;49.86
81931;BME280;71395;43.488;1.472;2023-08-21T05:11:51;100333.84;;;30.93;50.24
81931;BME280;71395;43.488;1.472;2023-08-21T05:14:17;100328.66;;;30.87;50.07
81931;BME280;71395;43.488;1.472;2023-08-21T05:16:45;100331.47;;;30.91;50.51
81931;BME280;71395;43.488;1.472;2023-08-21T05:19:10;100342.94;;;30.89;50.36
81931;BME280;71395;43.488;1.472;2023-08-21T05:21:35;100323.50;;;30.79;50.75
81931;BME280;71395;43.488;1.472;2023-08-21T05:24:01;100355.63;;;30.94;50.26
81931;BME280;71395;43.488;1.472;2023-08-21T05:26:26;100352.00;;;30.86;50.22
81931;BME280;71395;43.488;1.472;2023-08-21T05:28:51;100356.75;;;30.86;49.86
81931;BME280;71395;43.488;1.472;2023-08-21T05:31:17;100367.84;;;30.89;50.13
81931;BME280;71395;43.488;1.472;2023-08-21T05:33:42;100366.25;;;30.92;50.00
81931;BME280;71395;43.488;1.472;2023-08-21T05:36:08;100363.50;;;30.88;50.44
81931;BME280;71395;43.488;1.472;2023-08-21T05:38:33;100376.97;;;30.94;50.81
81931;BME280;71395;43.488;1.472;2023-08-21T05:40:58;100372.59;;;30.93;50.74
81931;BME280;71395;43.488;1.472;2023-08-21T05:43:24;100366.69;;;30.94;50.87
81931;BME280;71395;43.488;1.472;2023-08-21T05:45:50;100366.28;;;30.88;50.31
81931;BME280;71395;43.488;1.472;2023-08-21T05:48:15;100354.75;;;30.79;50.20
81931;BME280;71395;43.488;1.472;2023-08-21T05:50:42;100371.81;;;30.92;50.20
81931;BME280;71395;43.488;1.472;2023-08-21T05:53:07;100363.06;;;30.86;50.37
81931;BME280;71395;43.488;1.472;2023-08-21T05:55:32;100376.56;;;30.92;50.19
81931;BME280;71395;43.488;1.472;2023-08-21T05:57:58;100363.44;;;30.81;50.49
81931;BME280;71395;43.488;1.472;2023-08-21T06:00:24;100381.31;;;30.91;49.81
81931;BME280;71395;43.488;1.472;2023-08-21T06:02:49;100382.88;;;30.88;50.17
81931;BME280;71395;43.488;1.472;2023-08-21T06:05:14;100388.81;;;30.91;50.15
81931;BME280;71395;43.488;1.472;2023-08-21T06:07:40;100389.56;;;30.87;50.06
81931;BME280;71395;43.488;1.472;2023-08-21T06:10:09;100371.34;;;30.79;50.66
81931;BME280;71395;43.488;1.472;2023-08-21T06:12:41;100395.16;;;30.91;50.22
81931;BME280;71395;43.488;1.472;2023-08-21T06:15:07;100389.97;;;30.86;50.27
81931;BME280;71395;43.488;1.472;2023-08-21T06:17:34;100399.88;;;30.91;50.50
81931;BME280;71395;43.488;1.472;2023-08-21T06:19:59;100400.66;;;30.87;50.19
81931;BME280;71395;43.488;1.472;2023-08-21T06:22:25;100378.84;;;30.75;50.32
81931;BME280;71395;43.488;1.472;2023-08-21T06:24:50;100379.59;;;30.72;50.33
81931;BME280;71395;43.488;1.472;2023-08-21T06:27:15;100394.72;;;30.85;49.95
81931;BME280;71395;43.488;1.472;2023-08-21T06:29:41;100384.75;;;30.77;50.30
81931;BME280;71395;43.488;1.472;2023-08-21T06:32:06;100405.78;;;30.85;50.71
81931;BME280;71395;43.488;1.472;2023-08-21T06:34:32;100411.34;;;30.89;50.43
81931;BME280;71395;43.488;1.472;2023-08-21T06:36:57;100389.06;;;30.71;50.33
81931;BME280;71395;43.488;1.472;2023-08-21T06:39:22;100403.41;;;30.84;50.46
81931;BME280;71395;43.488;1.472;2023-08-21T06:41:48;100393.50;;;30.79;49.93
81931;BME280;71395;43.488;1.472;2023-08-21T06:44:13;100404.97;;;30.81;50.55
81931;BME280;71395;43.488;1.472;2023-08-21T06:46:38;100393.88;;;30.78;50.32
81931;BME280;71395;43.488;1.472;2023-08-21T06:49:04;100399.44;;;30.81;50.25
81931;BME280;71395;43.488;1.472;2023-08-21T06:51:29;100401.81;;;30.83;50.37
81931;BME280;71395;43.488;1.472;2023-08-21T06:53:55;100398.66;;;30.84;50.96
81931;BME280;71395;43.488;1.472;2023-08-21T06:56:20;100402.63;;;30.87;50.47
81931;BME280;71395;43.488;1.472;2023-08-21T06:58:45;100396.28;;;30.83;50.23
81931;BME280;71395;43.488;1.472;2023-08-21T07:01:11;100393.50;;;30.79;50.57
81931;BME280;71395;43.488;1.472;2023-08-21T07:03:36;100396.66;;;30.81;50.51
81931;BME280;71395;43.488;1.472;2023-08-21T07:06:02;100399.44;;;30.81;50.22
81931;BME280;71395;43.488;1.472;2023-08-21T07:08:28;100398.25;;;30.82;50.62
81931;BME280;71395;43.488;1.472;2023-08-21T07:10:53;100385.13;;;30.72;50.10
81931;BME280;71395;43.488;1.472;2023-08-21T07:13:19;100403.03;;;30.85;50.60
81931;BME280;71395;43.488;1.472;2023-08-21T07:15:45;100397.44;;;30.82;50.23
81931;BME280;71395;43.488;1.472;2023-08-21T07:18:11;100395.88;;;30.81;50.48
81931;BME280;71395;43.488;1.472;2023-08-21T07:20:36;100404.22;;;30.84;49.76
81931;BME280;71395;43.488;1.472;2023-08-21T07:23:02;100394.25;;;30.76;50.04
81931;BME280;71395;43.488;1.472;2023-08-21T07:25:27;100389.16;;;30.78;50.53
81931;BME280;71395;43.488;1.472;2023-08-21T07:27:56;100401.44;;;30.84;49.93
81931;BME280;71395;43.488;1.472;2023-08-21T07:30:22;100396.69;;;30.85;50.13
81931;BME280;71395;43.488;1.472;2023-08-21T07:32:48;100399.06;;;30.86;49.88
81931;BME280;71395;43.488;1.472;2023-08-21T07:35:14;100401.84;;;30.86;49.67
81931;BME280;71395;43.488;1.472;2023-08-21T07:37:43;100391.53;;;30.80;50.22
81931;BME280;71395;43.488;1.472;2023-08-21T07:40:08;100386.78;;;30.80;50.23
81931;BME280;71395;43.488;1.472;2023-08-21T07:42:34;100389.16;;;30.82;50.20
81931;BME280;71395;43.488;1.472;2023-08-21T07:44:59;100382.78;;;30.78;50.01
81931;BME280;71395;43.488;1.472;2023-08-21T07:47:26;100395.09;;;30.87;49.83
81931;BME280;71395;43.488;1.472;2023-08-21T07:49:52;100370.91;;;30.77;50.14
81931;BME280;71395;43.488;1.472;2023-08-21T07:52:17;100387.59;;;30.84;50.34
81931;BME280;71395;43.488;1.472;2023-08-21T07:54:43;100361.81;;;30.73;49.82
81931;BME280;71395;43.488;1.472;2023-08-21T07:57:08;100378.88;;;30.79;49.64
81931;BME280;71395;43.488;1.472;2023-08-21T07:59:33;100379.66;;;30.79;49.54
81931;BME280;71395;43.488;1.472;2023-08-21T08:01:59;100387.59;;;30.88;49.64
81931;BME280;71395;43.488;1.472;2023-08-21T08:04:25;100379.66;;;30.79;50.11
81931;BME280;71395;43.488;1.472;2023-08-21T08:06:51;100368.19;;;30.81;49.78
81931;BME280;71395;43.488;1.472;2023-08-21T08:09:17;100373.34;;;30.86;50.33
81931;BME280;71395;43.488;1.472;2023-08-21T08:11:42;100365.00;;;30.75;49.87
81931;BME280;71395;43.488;1.472;2023-08-21T08:14:07;100368.97;;;30.81;50.01
81931;BME280;71395;43.488;1.472;2023-08-21T08:16:33;100367.41;;;30.80;50.16
81931;BME280;71395;43.488;1.472;2023-08-21T08:18:58;100377.31;;;30.85;49.95
81931;BME280;71395;43.488;1.472;2023-08-21T08:21:24;100378.09;;;30.85;50.18
81931;BME280;71395;43.488;1.472;2023-08-21T08:23:49;100366.22;;;30.81;49.68
81931;BME280;71395;43.488;1.472;2023-08-21T08:26:14;100363.44;;;30.81;50.47
81931;BME280;71395;43.488;1.472;2023-08-21T08:28:42;100368.59;;;30.83;50.37
81931;BME280;71395;43.488;1.472;2023-08-21T08:31:14;100367.81;;;30.86;49.67
81931;BME280;71395;43.488;1.472;2023-08-21T08:33:39;100366.22;;;30.81;49.66
81931;BME280;71395;43.488;1.472;2023-08-21T08:36:05;100365.81;;;30.83;50.33
81931;BME280;71395;43.488;1.472;2023-08-21T08:38:30;100347.59;;;30.75;50.27
81931;BME280;71395;43.488;1.472;2023-08-21T08:40:56;100365.06;;;30.86;49.86
81931;BME280;71395;43.488;1.472;2023-08-21T08:43:23;100371.00;;;30.92;50.15
81931;BME280;71395;43.488;1.472;2023-08-21T08:45:50;100358.72;;;30.85;50.17
81931;BME280;71395;43.488;1.472;2023-08-21T08:48:19;100355.97;;;30.85;50.25
81931;BME280;71395;43.488;1.472;2023-08-21T08:50:45;100359.16;;;30.91;49.49
81931;BME280;71395;43.488;1.472;2023-08-21T08:53:13;100345.25;;;30.80;49.97
81931;BME280;71395;43.488;1.472;2023-08-21T08:55:39;100349.66;;;30.88;50.37
81931;BME280;71395;43.488;1.472;2023-08-21T08:58:04;100337.31;;;30.75;49.78
81931;BME280;71395;43.488;1.472;2023-08-21T09:00:30;100359.94;;;30.92;50.51
81931;BME280;71395;43.488;1.472;2023-08-21T09:02:57;100345.66;;;30.82;49.71
81931;BME280;71395;43.488;1.472;2023-08-21T09:05:23;100335.34;;;30.79;49.73
81931;BME280;71395;43.488;1.472;2023-08-21T09:08:10;100350.88;;;30.95;50.29
81931;BME280;71395;43.488;1.472;2023-08-21T09:10:37;100330.66;;;30.83;49.67
81931;BME280;71395;43.488;1.472;2023-08-21T09:13:30;100339.38;;;30.93;50.41
81931;BME280;71395;43.488;1.472;2023-08-21T09:15:56;100331.00;;;30.82;50.21
81931;BME280;71395;43.488;1.472;2023-08-21T09:18:22;100322.69;;;30.82;50.48
81931;BME280;71395;43.488;1.472;2023-08-21T09:20:47;100321.53;;;30.79;50.03
81931;BME280;71395;43.488;1.472;2023-08-21T09:23:17;100327.50;;;30.92;49.88
81931;BME280;71395;43.488;1.472;2023-08-21T09:25:48;100325.13;;;30.91;49.62
81931;BME280;71395;43.488;1.472;2023-08-21T09:28:14;100314.03;;;30.83;50.14
81931;BME280;71395;43.488;1.472;2023-08-21T09:30:51;100322.75;;;30.93;50.17
81931;BME280;71395;43.488;1.472;2023-08-21T09:33:22;100321.16;;;30.92;50.68
81931;BME280;71395;43.488;1.472;2023-08-21T09:35:48;100323.94;;;30.92;50.60
81931;BME280;71395;43.488;1.472;2023-08-21T09:38:14;100313.25;;;30.86;50.42
81931;BME280;71395;43.488;1.472;2023-08-21T09:40:44;100317.97;;;30.86;50.51
81931;BME280;71395;43.488;1.472;2023-08-21T09:43:16;100319.59;;;30.91;50.03
81931;BME280;71395;43.488;1.472;2023-08-21T09:45:46;100305.31;;;30.81;50.37
81931;BME280;71395;43.488;1.472;2023-08-21T09:48:12;100312.84;;;30.88;50.03
81931;BME280;71395;43.488;1.472;2023-08-21T09:50:38;100322.75;;;30.93;50.02
81931;BME280;71395;43.488;1.472;2023-08-21T09:53:06;100312.88;;;30.92;49.72
81931;BME280;71395;43.488;1.472;2023-08-21T09:55:32;100301.38;;;30.86;49.48
81931;BME280;71395;43.488;1.472;2023-08-21T09:58:01;100311.28;;;30.91;50.28
81931;BME280;71395;43.488;1.472;2023-08-21T10:00:32;100312.09;;;30.95;50.22
81931;BME280;71395;43.488;1.472;2023-08-21T10:03:02;100303.75;;;30.87;49.68
81931;BME280;71395;43.488;1.472;2023-08-21T10:05:32;100306.13;;;30.93;49.83
81931;BME280;71395;43.488;1.472;2023-08-21T10:08:03;100297.84;;;30.93;50.11
81931;BME280;71395;43.488;1.472;2023-08-21T10:10:35;100288.75;;;30.88;50.34
81931;BME280;71395;43.488;1.472;2023-08-21T10:13:00;100297.44;;;30.91;50.15
81931;BME280;71395;43.488;1.472;2023-08-21T10:15:28;100291.88;;;30.83;50.01
81931;BME280;71395;43.488;1.472;2023-08-21T10:17:53;100293.84;;;30.86;49.95
81931;BME280;71395;43.488;1.472;2023-08-21T10:20:24;100289.50;;;30.85;50.00
81931;BME280;71395;43.488;1.472;2023-08-21T10:22:53;100301.44;;;30.93;50.71
81931;BME280;71395;43.488;1.472;2023-08-21T10:25:23;100296.69;;;30.94;49.43
81931;BME280;71395;43.488;1.472;2023-08-21T10:27:55;100276.84;;;30.84;49.55
81931;BME280;71395;43.488;1.472;2023-08-21T10:30:26;100285.97;;;30.88;50.19
81931;BME280;71395;43.488;1.472;2023-08-21T10:32:53;100297.03;;;30.92;50.28
81931;BME280;71395;43.488;1.472;2023-08-21T10:35:21;100279.63;;;30.84;49.87
81931;BME280;71395;43.488;1.472;2023-08-21T10:38:16;100292.72;;;30.95;49.47
81931;BME280;71395;43.488;1.472;2023-08-21T10:41:05;100285.59;;;30.94;49.77
81931;BME280;71395;43.488;1.472;2023-08-21T10:46:06;100266.59;;;30.88;50.36
81931;BME280;71395;43.488;1.472;2023-08-21T10:48:32;100262.22;;;30.84;49.62
81931;BME280;71395;43.488;1.472;2023-08-21T10:51:01;100245.97;;;30.82;50.15
81931;BME280;71395;43.488;1.472;2023-08-21T10:53:28;100265.41;;;30.89;49.85
81931;BME280;71395;43.488;1.472;2023-08-21T10:55:54;100259.06;;;30.93;50.10
81931;BME280;71395;43.488;1.472;2023-08-21T10:58:20;100190.47;;;30.50;49.87
81931;BME280;71395;43.488;1.472;2023-08-21T11:00:45;100241.25;;;30.86;49.65
81931;BME280;71395;43.488;1.472;2023-08-21T11:03:11;100235.72;;;30.86;50.32
81931;BME280;71395;43.488;1.472;2023-08-21T11:05:36;100234.13;;;30.85;49.91
81931;BME280;71395;43.488;1.472;2023-08-21T11:08:02;100237.28;;;30.87;49.85
81931;BME280;71395;43.488;1.472;2023-08-21T11:10:30;100238.91;;;30.96;50.62
81931;BME280;71395;43.488;1.472;2023-08-21T11:12:57;100240.09;;;30.95;50.29
81931;BME280;71395;43.488;1.472;2023-08-21T11:15:25;100224.25;;;30.84;49.75
81931;BME280;71395;43.488;1.472;2023-08-21T11:17:54;100237.72;;;30.97;49.91
81931;BME280;71395;43.488;1.472;2023-08-21T11:20:20;100243.25;;;30.97;50.34
81931;BME280;71395;43.488;1.472;2023-08-21T11:22:46;100221.47;;;30.84;49.96
81931;BME280;71395;43.488;1.472;2023-08-21T11:25:11;100223.91;;;30.93;49.81
81931;BME280;71395;43.488;1.472;2023-08-21T11:27:37;100224.69;;;30.94;50.43
81931;BME280;71395;43.488;1.472;2023-08-21T11:30:03;100223.09;;;30.96;50.15
81931;BME280;71395;43.488;1.472;2023-08-21T11:32:29;100212.81;;;30.97;49.85
81931;BME280;71395;43.488;1.472;2023-08-21T11:34:56;100218.34;;;30.97;50.13
81931;BME280;71395;43.488;1.472;2023-08-21T11:37:26;100204.91;;;30.95;49.96
81931;BME280;71395;43.488;1.472;2023-08-21T11:39:53;100210.81;;;30.97;50.58
81931;BME280;71395;43.488;1.472;2023-08-21T11:42:20;100208.84;;;30.98;50.26
81931;BME280;71395;43.488;1.472;2023-08-21T11:44:52;100193.03;;;30.95;50.13
81931;BME280;71395;43.488;1.472;2023-08-21T11:47:20;100196.19;;;30.97;49.98
81931;BME280;71395;43.488;1.472;2023-08-21T11:49:46;100189.06;;;30.92;49.77
81931;BME280;71395;43.488;1.472;2023-08-21T11:52:22;100178.78;;;30.93;50.41
81931;BME280;71395;43.488;1.472;2023-08-21T11:54:52;100170.84;;;30.87;49.93
81931;BME280;71395;43.488;1.472;2023-08-21T11:57:19;100184.34;;;31.00;50.63
81931;BME280;71395;43.488;1.472;2023-08-21T11:59:54;100181.19;;;31.01;50.02
81931;BME280;71395;43.488;1.472;2023-08-21T12:02:29;100160.59;;;30.92;49.64
81931;BME280;71395;43.488;1.472;2023-08-21T12:05:03;100170.50;;;31.00;49.74
81931;BME280;71395;43.488;1.472;2023-08-21T12:07:28;100168.50;;;30.97;50.51
81931;BME280;71395;43.488;1.472;2023-08-21T12:09:54;100163.78;;;31.01;49.67
81931;BME280;71395;43.488;1.472;2023-08-21T12:12:19;100141.59;;;30.86;49.93
81931;BME280;71395;43.488;1.472;2023-08-21T12:14:45;100140.00;;;30.93;50.22
81931;BME280;71395;43.488;1.472;2023-08-21T12:17:11;100147.53;;;30.96;50.47
81931;BME280;71395;43.488;1.472;2023-08-21T12:19:36;100133.28;;;30.90;49.79
81931;BME280;71395;43.488;1.472;2023-08-21T12:22:02;100128.56;;;30.91;50.23
81931;BME280;71395;43.488;1.472;2023-08-21T12:24:28;100131.34;;;30.94;50.45
81931;BME280;71395;43.488;1.472;2023-08-21T12:26:53;100139.25;;;31.03;50.15
81931;BME280;71395;43.488;1.472;2023-08-21T12:29:18;100119.47;;;30.94;50.17
81931;BME280;71395;43.488;1.472;2023-08-21T12:31:44;100123.81;;;30.98;50.10
81931;BME280;71395;43.488;1.472;2023-08-21T12:34:09;100110.34;;;30.89;49.95
81931;BME280;71395;43.488;1.472;2023-08-21T12:36:35;100128.56;;;31.05;50.08
81931;BME280;71395;43.488;1.472;2023-08-21T12:39:02;100104.00;;;30.93;50.02
81931;BME280;71395;43.488;1.472;2023-08-21T12:41:29;100116.31;;;30.99;49.97
81931;BME280;71395;43.488;1.472;2023-08-21T12:43:54;100128.56;;;31.05;50.00
81931;BME280;71395;43.488;1.472;2023-08-21T12:46:19;100112.34;;;31.00;49.69
81931;BME280;71395;43.488;1.472;2023-08-21T12:48:45;100098.91;;;30.98;49.65
81931;BME280;71395;43.488;1.472;2023-08-21T12:51:11;100104.44;;;31.02;50.31
81931;BME280;71395;43.488;1.472;2023-08-21T12:53:37;100092.94;;;30.96;50.11